Time;durP1;ratioP1;P1;durP2;ratioP2;P2;SDS_P1;SDS_P2;PMS_P1;PMS_P2;Temp;Humidity;BMP_temperature;BMP_pressure;BME280_temperature;BME280_humidity;BME280_pressure;Samples;Min_cycle;Max_cycle;Signal;HPM_P1;HPM_P2
2022/02/14 00:01:31;;;;;;;19.13;11.55;;;;;;;;;;5010886;28;20146;-69
2022/02/14 00:03:58;;;;;;;20.90;11.27;;;;;;;;;;5011078;28;20065;-69
2022/02/14 00:06:24;;;;;;;23.60;11.98;;;;;;;;;;5011519;28;20575;-68
2022/02/14 00:08:50;;;;;;;22.48;11.70;;;;;;;;;;5008456;28;20034;-69
2022/02/14 00:11:16;;;;;;;20.77;10.75;;;;;;;;;;5006495;28;20180;-69
2022/02/14 00:13:42;;;;;;;19.38;10.80;;;;;;;;;;5010707;28;20511;-67
2022/02/14 00:16:08;;;;;;;19.02;10.85;;;;;;;;;;5010871;28;20383;-67
2022/02/14 00:18:34;;;;;;;18.75;10.57;;;;;;;;;;5011295;28;20030;-69
2022/02/14 00:21:00;;;;;;;16.17;10.35;;;;;;;;;;5010628;28;20029;-69
2022/02/14 00:23:26;;;;;;;20.88;11.43;;;;;;;;;;5009513;28;20061;-70
2022/02/14 00:25:52;;;;;;;17.40;10.23;;;;;;;;;;4999210;28;20049;-70
2022/02/14 00:28:18;;;;;;;18.67;10.43;;;;;;;;;;5010979;28;20041;-70
2022/02/14 00:30:44;;;;;;;18.65;10.10;;;;;;;;;;5010637;28;20065;-70
2022/02/14 00:33:10;;;;;;;18.33;10.55;;;;;;;;;;5000018;28;20034;-71
2022/02/14 00:35:36;;;;;;;19.35;9.98;;;;;;;;;;5010175;28;20034;-70
2022/02/14 00:38:03;;;;;;;18.13;10.40;;;;;;;;;;5010230;28;20539;-69
2022/02/14 00:40:29;;;;;;;19.23;11.07;;;;;;;;;;5010685;28;20030;-70
2022/02/14 00:42:55;;;;;;;19.08;9.57;;;;;;;;;;5008953;28;20132;-69
2022/02/14 00:45:21;;;;;;;17.80;9.68;;;;;;;;;;5010327;28;20498;-70
2022/02/14 00:47:48;;;;;;;16.75;10.10;;;;;;;;;;5008859;28;20500;-69
2022/02/14 00:50:15;;;;;;;17.98;9.48;;;;;;;;;;5008747;28;20128;-69
2022/02/14 00:52:41;;;;;;;17.15;9.68;;;;;;;;;;5010006;28;20071;-69
2022/02/14 00:55:09;;;;;;;17.33;9.57;;;;;;;;;;5009989;28;20033;-69
2022/02/14 00:57:35;;;;;;;17.10;9.65;;;;;;;;;;5010276;28;20033;-69
2022/02/14 01:00:04;;;;;;;19.02;10.10;;;;;;;;;;5010143;28;20072;-70
2022/02/14 01:02:30;;;;;;;18.67;9.93;;;;;;;;;;5008635;28;20108;-70
2022/02/14 01:04:56;;;;;;;17.33;10.05;;;;;;;;;;5010158;28;20109;-71
2022/02/14 01:07:23;;;;;;;18.30;9.48;;;;;;;;;;5010140;28;20018;-70
2022/02/14 01:09:50;;;;;;;17.40;9.00;;;;;;;;;;5010489;28;20037;-69
2022/02/14 01:12:16;;;;;;;18.42;9.70;;;;;;;;;;5008797;28;20124;-69
2022/02/14 01:14:42;;;;;;;14.10;8.23;;;;;;;;;;5009931;28;20077;-68
2022/02/14 01:17:08;;;;;;;16.13;8.90;;;;;;;;;;5008656;28;20260;-70
2022/02/14 01:19:35;;;;;;;16.08;8.02;;;;;;;;;;5009477;28;20018;-70
2022/02/14 01:22:01;;;;;;;16.23;8.63;;;;;;;;;;5008898;28;20076;-69
2022/02/14 01:24:27;;;;;;;16.88;9.27;;;;;;;;;;5005362;28;20033;-69
2022/02/14 01:26:53;;;;;;;15.95;8.52;;;;;;;;;;5009530;28;20084;-69
2022/02/14 01:29:19;;;;;;;14.88;8.77;;;;;;;;;;5008391;28;20025;-70
2022/02/14 01:31:45;;;;;;;16.17;9.30;;;;;;;;;;5001857;28;20448;-69
2022/02/14 01:34:12;;;;;;;14.52;8.50;;;;;;;;;;5009087;28;20527;-69
2022/02/14 01:36:38;;;;;;;14.88;7.97;;;;;;;;;;5009778;28;20026;-69
2022/02/14 01:39:05;;;;;;;14.80;7.68;;;;;;;;;;5009663;28;20080;-69
2022/02/14 01:41:31;;;;;;;14.20;7.85;;;;;;;;;;5009592;28;20113;-69
2022/02/14 01:43:57;;;;;;;16.70;8.80;;;;;;;;;;5008606;28;20105;-70
2022/02/14 01:46:23;;;;;;;16.15;8.55;;;;;;;;;;5009467;28;20453;-70
2022/02/14 01:48:49;;;;;;;15.27;7.55;;;;;;;;;;5011748;28;20132;-69
2022/02/14 01:51:16;;;;;;;16.48;8.45;;;;;;;;;;5008875;28;20558;-70
2022/02/14 01:53:42;;;;;;;14.05;8.75;;;;;;;;;;5008873;28;20076;-70
2022/02/14 01:56:08;;;;;;;14.77;8.80;;;;;;;;;;5009104;28;20063;-70
2022/02/14 01:58:34;;;;;;;13.38;7.88;;;;;;;;;;5008840;28;20104;-70
2022/02/14 02:01:00;;;;;;;15.85;8.13;;;;;;;;;;5008249;28;20117;-70
2022/02/14 02:03:26;;;;;;;12.90;8.02;;;;;;;;;;5008594;28;20116;-70
2022/02/14 02:05:53;;;;;;;14.40;7.70;;;;;;;;;;5008511;28;20026;-70
2022/02/14 02:08:19;;;;;;;17.65;8.73;;;;;;;;;;5009336;28;20113;-70
2022/02/14 02:10:45;;;;;;;13.07;7.38;;;;;;;;;;5008424;28;20570;-70
2022/02/14 02:13:11;;;;;;;13.10;8.02;;;;;;;;;;5009024;28;20108;-69
2022/02/14 02:15:37;;;;;;;13.60;7.57;;;;;;;;;;5008095;28;20713;-70
2022/02/14 02:18:06;;;;;;;15.43;7.35;;;;;;;;;;5009171;28;20058;-68
2022/02/14 02:20:33;;;;;;;12.60;7.15;;;;;;;;;;5008311;28;20026;-68
2022/02/14 02:22:59;;;;;;;14.80;7.45;;;;;;;;;;5008761;28;20049;-69
2022/02/14 02:25:25;;;;;;;13.77;8.00;;;;;;;;;;5009312;28;20171;-70
2022/02/14 02:27:51;;;;;;;15.82;7.75;;;;;;;;;;5009196;28;20113;-68
2022/02/14 02:30:18;;;;;;;15.23;8.38;;;;;;;;;;5007025;28;20539;-68
2022/02/14 02:32:45;;;;;;;12.95;7.78;;;;;;;;;;5005473;28;20108;-68
2022/02/14 02:35:12;;;;;;;13.75;8.07;;;;;;;;;;5008564;28;20471;-68
2022/02/14 02:37:39;;;;;;;11.60;6.53;;;;;;;;;;5008772;28;20021;-68
2022/02/14 02:40:05;;;;;;;12.50;6.55;;;;;;;;;;5008140;28;20046;-68
2022/02/14 02:42:31;;;;;;;11.98;7.32;;;;;;;;;;5008515;28;20030;-69
2022/02/14 02:44:57;;;;;;;10.40;5.95;;;;;;;;;;5007491;28;20053;-70
2022/02/14 02:47:24;;;;;;;12.93;6.93;;;;;;;;;;5007924;28;20084;-70
2022/02/14 02:49:51;;;;;;;12.45;6.95;;;;;;;;;;5007835;28;20038;-70
2022/02/14 02:52:18;;;;;;;11.70;6.88;;;;;;;;;;5008415;28;20041;-70
2022/02/14 02:54:45;;;;;;;12.13;6.97;;;;;;;;;;5008058;28;20034;-70
2022/02/14 02:57:11;;;;;;;12.70;6.82;;;;;;;;;;5007800;28;20029;-70
2022/02/14 02:59:37;;;;;;;11.20;6.80;;;;;;;;;;5008080;28;20022;-70
2022/02/14 03:02:05;;;;;;;10.73;6.22;;;;;;;;;;5007416;28;20455;-71
2022/02/14 03:04:31;;;;;;;10.30;6.05;;;;;;;;;;5007663;28;20041;-70
2022/02/14 03:06:57;;;;;;;12.98;7.18;;;;;;;;;;5005947;28;20229;-70
2022/02/14 03:09:23;;;;;;;10.50;6.10;;;;;;;;;;5005749;28;20127;-70
2022/02/14 03:11:50;;;;;;;13.43;6.63;;;;;;;;;;5012242;28;20129;-70
2022/02/14 03:14:16;;;;;;;12.20;6.28;;;;;;;;;;5011760;28;20053;-69
2022/02/14 03:16:42;;;;;;;11.48;6.68;;;;;;;;;;5011157;28;20657;-70
2022/02/14 03:19:09;;;;;;;11.80;6.13;;;;;;;;;;5011459;28;20061;-66
2022/02/14 03:21:35;;;;;;;12.50;6.18;;;;;;;;;;5011566;28;20685;-70
2022/02/14 03:24:01;;;;;;;11.90;6.03;;;;;;;;;;5011745;28;20037;-70
2022/02/14 03:26:27;;;;;;;13.23;6.68;;;;;;;;;;5009989;28;20026;-70
2022/02/14 03:28:54;;;;;;;11.40;6.43;;;;;;;;;;5011632;28;20107;-70
2022/02/14 03:31:21;;;;;;;13.57;6.15;;;;;;;;;;5011597;28;20042;-70
2022/02/14 03:33:47;;;;;;;11.63;5.80;;;;;;;;;;5005120;28;20026;-70
2022/02/14 03:36:14;;;;;;;12.98;6.97;;;;;;;;;;5007065;28;20543;-70
2022/02/14 03:38:40;;;;;;;11.38;5.60;;;;;;;;;;5011424;28;20037;-70
2022/02/14 03:41:06;;;;;;;9.18;5.35;;;;;;;;;;5009366;28;20076;-70
2022/02/14 03:43:32;;;;;;;9.45;5.43;;;;;;;;;;5010403;28;20088;-70
2022/02/14 03:45:58;;;;;;;11.88;6.25;;;;;;;;;;5010369;28;20539;-69
2022/02/14 03:48:25;;;;;;;11.07;5.72;;;;;;;;;;5008822;28;20042;-70
2022/02/14 03:50:54;;;;;;;13.57;5.90;;;;;;;;;;5004351;28;20038;-70
2022/02/14 03:53:21;;;;;;;9.48;4.82;;;;;;;;;;5004157;28;20602;-70
2022/02/14 03:55:47;;;;;;;8.80;5.30;;;;;;;;;;5011253;28;20559;-70
2022/02/14 03:58:13;;;;;;;9.20;5.00;;;;;;;;;;5010911;28;20069;-69
2022/02/14 04:00:39;;;;;;;11.77;6.43;;;;;;;;;;5010094;28;20034;-69
2022/02/14 04:03:05;;;;;;;10.93;5.57;;;;;;;;;;5011065;28;20029;-70
2022/02/14 04:05:31;;;;;;;10.30;6.00;;;;;;;;;;5010413;28;20022;-69
2022/02/14 04:07:58;;;;;;;11.23;5.25;;;;;;;;;;5011125;28;20395;-68
2022/02/14 04:10:26;;;;;;;11.43;6.32;;;;;;;;;;5011046;28;20044;-70
2022/02/14 04:12:53;;;;;;;10.95;5.57;;;;;;;;;;5010836;28;20100;-69
2022/02/14 04:15:19;;;;;;;9.65;5.65;;;;;;;;;;5010097;28;20060;-69
2022/02/14 04:17:45;;;;;;;10.40;5.70;;;;;;;;;;5010757;28;20140;-69
2022/02/14 04:20:12;;;;;;;9.05;5.28;;;;;;;;;;5010862;28;20114;-69
2022/02/14 04:22:40;;;;;;;10.75;5.70;;;;;;;;;;5009894;28;20037;-70
2022/02/14 04:25:06;;;;;;;9.93;5.55;;;;;;;;;;5009804;28;20057;-69
2022/02/14 04:27:32;;;;;;;8.85;4.75;;;;;;;;;;5009938;28;20104;-69
2022/02/14 04:29:58;;;;;;;13.05;6.15;;;;;;;;;;5006454;28;20233;-70
2022/02/14 04:32:24;;;;;;;10.18;5.25;;;;;;;;;;5009420;28;20606;-69
2022/02/14 04:34:50;;;;;;;8.52;4.97;;;;;;;;;;5008862;28;20126;-70
2022/02/14 04:37:16;;;;;;;8.43;4.95;;;;;;;;;;5010571;28;20109;-69
2022/02/14 04:39:43;;;;;;;10.45;4.95;;;;;;;;;;5009131;28;20026;-70
2022/02/14 04:42:10;;;;;;;10.98;5.40;;;;;;;;;;5010354;28;20034;-69
2022/02/14 04:44:36;;;;;;;8.52;5.03;;;;;;;;;;5010084;28;20088;-70
2022/02/14 04:47:02;;;;;;;8.55;5.03;;;;;;;;;;5009996;28;20108;-70
2022/02/14 04:49:28;;;;;;;9.20;5.20;;;;;;;;;;5020334;28;20029;-70
2022/02/14 04:51:54;;;;;;;10.32;5.38;;;;;;;;;;5008627;28;20025;-69
2022/02/14 04:54:20;;;;;;;11.48;5.05;;;;;;;;;;5007810;28;20740;-70
2022/02/14 04:56:47;;;;;;;9.60;4.60;;;;;;;;;;5008414;28;20101;-70
2022/02/14 04:59:14;;;;;;;8.05;4.50;;;;;;;;;;5007376;28;20038;-70
2022/02/14 05:01:41;;;;;;;10.90;4.85;;;;;;;;;;5008254;28;20184;-70
2022/02/14 05:04:07;;;;;;;8.40;4.45;;;;;;;;;;5010159;28;20435;-70
2022/02/14 05:06:33;;;;;;;8.80;4.53;;;;;;;;;;5010128;28;20476;-69
2022/02/14 05:08:59;;;;;;;9.30;4.55;;;;;;;;;;5010354;28;20057;-70
2022/02/14 05:11:25;;;;;;;9.43;4.03;;;;;;;;;;5009688;28;20591;-70
2022/02/14 05:13:51;;;;;;;8.63;4.15;;;;;;;;;;4990384;28;20085;-69
2022/02/14 05:16:23;;;;;;;6.80;3.70;;;;;;;;;;5005032;28;20034;-69
2022/02/14 05:18:49;;;;;;;7.88;4.25;;;;;;;;;;5009744;28;20053;-69
2022/02/14 05:21:15;;;;;;;8.70;4.40;;;;;;;;;;5010131;28;20104;-69
2022/02/14 05:23:42;;;;;;;8.48;4.30;;;;;;;;;;5010210;28;20084;-68
2022/02/14 05:26:08;;;;;;;7.72;4.10;;;;;;;;;;5009474;28;20467;-70
2022/02/14 05:28:34;;;;;;;7.32;4.03;;;;;;;;;;5009761;28;20033;-72
2022/02/14 05:31:00;;;;;;;9.20;4.35;;;;;;;;;;5008998;28;20072;-72
2022/02/14 05:33:26;;;;;;;9.23;3.72;;;;;;;;;;5008882;28;20036;-72
2022/02/14 05:35:52;;;;;;;7.30;3.47;;;;;;;;;;5009614;28;20026;-74
2022/02/14 05:38:18;;;;;;;9.55;5.00;;;;;;;;;;5010036;28;20052;-75
2022/02/14 05:40:44;;;;;;;7.68;3.53;;;;;;;;;;5008047;28;20053;-73
2022/02/14 05:43:10;;;;;;;7.43;3.83;;;;;;;;;;5009410;28;20045;-75
2022/02/14 05:45:36;;;;;;;8.63;3.88;;;;;;;;;;4997919;28;20034;-74
2022/02/14 05:48:02;;;;;;;8.52;3.92;;;;;;;;;;5011203;28;20515;-73
2022/02/14 05:50:28;;;;;;;9.00;4.13;;;;;;;;;;5009310;28;20117;-72
2022/02/14 05:52:54;;;;;;;6.95;3.83;;;;;;;;;;5008867;28;20435;-71
2022/02/14 05:55:20;;;;;;;8.13;4.03;;;;;;;;;;5009888;28;20037;-68
2022/02/14 05:57:50;;;;;;;8.10;3.80;;;;;;;;;;5008718;28;20156;-69
2022/02/14 06:00:16;;;;;;;6.22;3.35;;;;;;;;;;5000278;28;20415;-73
2022/02/14 06:02:42;;;;;;;9.35;3.85;;;;;;;;;;5001629;28;20479;-73
2022/02/14 06:05:08;;;;;;;8.10;3.80;;;;;;;;;;5009202;28;20030;-74
2022/02/14 06:07:34;;;;;;;7.50;3.28;;;;;;;;;;5008984;28;20076;-73
2022/02/14 06:10:00;;;;;;;8.07;3.60;;;;;;;;;;5011428;28;20021;-70
2022/02/14 06:12:27;;;;;;;7.68;2.67;;;;;;;;;;5013810;28;20153;-69
2022/02/14 06:14:53;;;;;;;7.68;3.00;;;;;;;;;;5011106;28;20419;-68
2022/02/14 06:17:19;;;;;;;10.77;3.40;;;;;;;;;;5008588;28;20030;-69
2022/02/14 06:19:45;;;;;;;7.35;3.28;;;;;;;;;;5008909;28;20064;-68
2022/02/14 06:22:12;;;;;;;6.80;3.00;;;;;;;;;;5008624;28;20033;-69
2022/02/14 06:24:38;;;;;;;6.63;3.17;;;;;;;;;;5009043;28;20030;-69
2022/02/14 06:27:04;;;;;;;9.10;3.00;;;;;;;;;;5008755;28;20115;-69
2022/02/14 06:29:30;;;;;;;13.18;2.95;;;;;;;;;;5008575;28;20109;-69
2022/02/14 06:31:56;;;;;;;9.18;2.92;;;;;;;;;;5008577;28;20125;-72
2022/02/14 06:34:22;;;;;;;7.13;2.70;;;;;;;;;;5005307;28;20491;-73
2022/02/14 06:36:48;;;;;;;9.05;2.92;;;;;;;;;;5008880;28;20049;-73
2022/02/14 06:39:14;;;;;;;13.13;3.25;;;;;;;;;;5008759;28;20029;-73
2022/02/14 06:41:40;;;;;;;7.13;2.80;;;;;;;;;;5016295;28;20582;-73
2022/02/14 06:44:06;;;;;;;11.05;2.92;;;;;;;;;;5017704;28;20029;-73
2022/02/14 06:46:32;;;;;;;11.68;2.80;;;;;;;;;;5016429;28;20025;-72
2022/02/14 06:48:58;;;;;;;9.57;2.45;;;;;;;;;;5011637;28;20044;-72
2022/02/14 06:51:24;;;;;;;9.18;2.70;;;;;;;;;;5008674;28;20041;-73
2022/02/14 06:53:50;;;;;;;11.07;2.80;;;;;;;;;;5014242;28;20510;-73
2022/02/14 06:56:18;;;;;;;8.02;2.53;;;;;;;;;;5016536;28;20032;-73
2022/02/14 06:58:44;;;;;;;9.73;2.53;;;;;;;;;;5014419;28;20021;-72
2022/02/14 07:01:11;;;;;;;7.78;1.90;;;;;;;;;;5016186;28;20201;-73
2022/02/14 07:03:37;;;;;;;6.40;2.20;;;;;;;;;;5015472;28;20049;-73
2022/02/14 07:06:04;;;;;;;6.63;2.53;;;;;;;;;;5008130;28;20018;-73
2022/02/14 07:08:31;;;;;;;6.50;2.72;;;;;;;;;;5007785;28;20506;-73
2022/02/14 07:10:57;;;;;;;9.15;2.40;;;;;;;;;;5008343;28;20519;-73
2022/02/14 07:13:23;;;;;;;10.27;2.50;;;;;;;;;;5008158;28;20539;-73
2022/02/14 07:15:49;;;;;;;7.85;2.00;;;;;;;;;;5008204;28;20038;-73
2022/02/14 07:18:15;;;;;;;7.95;1.80;;;;;;;;;;5009098;28;20022;-73
2022/02/14 07:20:42;;;;;;;6.60;2.10;;;;;;;;;;5008135;28;20030;-73
2022/02/14 07:23:08;;;;;;;6.18;1.83;;;;;;;;;;5002327;28;20018;-73
2022/02/14 07:25:34;;;;;;;5.30;1.83;;;;;;;;;;5002066;28;20030;-73
2022/02/14 07:28:00;;;;;;;8.90;1.83;;;;;;;;;;5006646;28;20060;-72
2022/02/14 07:30:26;;;;;;;6.72;1.77;;;;;;;;;;5008570;28;20108;-72
2022/02/14 07:32:52;;;;;;;5.07;1.83;;;;;;;;;;5008379;28;20101;-72
2022/02/14 07:35:18;;;;;;;12.38;2.00;;;;;;;;;;5008289;28;20033;-72
2022/02/14 07:37:44;;;;;;;6.15;1.83;;;;;;;;;;5007077;28;20534;-72
2022/02/14 07:40:11;;;;;;;5.53;1.63;;;;;;;;;;5006672;28;20034;-72
2022/02/14 07:42:37;;;;;;;7.85;2.20;;;;;;;;;;5000505;28;20156;-72
2022/02/14 07:45:04;;;;;;;8.40;1.85;;;;;;;;;;5008059;28;20022;-72
2022/02/14 07:47:30;;;;;;;6.20;2.05;;;;;;;;;;5009404;28;20053;-73
2022/02/14 07:49:56;;;;;;;5.22;2.20;;;;;;;;;;5026392;28;20454;-73
2022/02/14 07:52:22;;;;;;;6.25;1.63;;;;;;;;;;5006440;28;20116;-73
2022/02/14 07:54:50;;;;;;;28.88;2.75;;;;;;;;;;5008552;28;20082;-73
2022/02/14 07:57:16;;;;;;;7.72;1.88;;;;;;;;;;5009642;28;20076;-72
2022/02/14 07:59:42;;;;;;;7.47;1.75;;;;;;;;;;5011140;28;20537;-73
2022/02/14 08:02:09;;;;;;;5.50;1.50;;;;;;;;;;5018267;28;20121;-72
2022/02/14 08:04:35;;;;;;;6.07;1.70;;;;;;;;;;5018200;28;20113;-73
2022/02/14 08:07:04;;;;;;;8.15;1.70;;;;;;;;;;5013004;28;20395;-73
2022/02/14 08:09:30;;;;;;;3.78;1.50;;;;;;;;;;5017243;28;20032;-73
2022/02/14 08:11:56;;;;;;;3.42;1.23;;;;;;;;;;5016553;28;20179;-73
2022/02/14 08:14:22;;;;;;;5.35;1.33;;;;;;;;;;5018632;28;20152;-73
2022/02/14 08:16:49;;;;;;;6.18;1.60;;;;;;;;;;5015013;28;20022;-73
2022/02/14 08:19:16;;;;;;;6.57;1.67;;;;;;;;;;5020694;28;20109;-73
2022/02/14 08:21:42;;;;;;;6.43;1.25;;;;;;;;;;5015990;28;20030;-72
2022/02/14 08:24:08;;;;;;;5.40;1.70;;;;;;;;;;5018625;28;20558;-73
2022/02/14 08:26:35;;;;;;;8.80;1.60;;;;;;;;;;5017148;28;20026;-73
2022/02/14 08:29:01;;;;;;;7.30;1.40;;;;;;;;;;5009204;28;20038;-73
2022/02/14 08:31:28;;;;;;;6.30;1.98;;;;;;;;;;4993841;28;20042;-73
2022/02/14 08:33:54;;;;;;;5.70;1.50;;;;;;;;;;5007230;28;20042;-72
2022/02/14 08:36:20;;;;;;;3.47;1.15;;;;;;;;;;5002446;28;20492;-72
2022/02/14 08:38:47;;;;;;;6.10;1.63;;;;;;;;;;5009116;28;20410;-71
2022/02/14 08:41:13;;;;;;;7.30;1.85;;;;;;;;;;4999971;28;20134;-69
2022/02/14 08:43:39;;;;;;;5.60;1.70;;;;;;;;;;5008354;28;20088;-72
2022/02/14 08:46:06;;;;;;;4.57;1.67;;;;;;;;;;5010391;28;20034;-73
2022/02/14 08:48:32;;;;;;;7.90;1.55;;;;;;;;;;5009561;28;20076;-73
2022/02/14 08:50:58;;;;;;;8.80;1.30;;;;;;;;;;5003928;28;20034;-73
2022/02/14 08:53:25;;;;;;;5.85;1.73;;;;;;;;;;5007470;28;20061;-74
2022/02/14 08:55:51;;;;;;;5.45;1.40;;;;;;;;;;5008299;28;20021;-73
2022/02/14 08:58:18;;;;;;;5.82;1.67;;;;;;;;;;5003458;28;20455;-71
2022/02/14 09:00:44;;;;;;;6.55;1.70;;;;;;;;;;5008901;28;20022;-72
2022/02/14 09:03:10;;;;;;;7.93;1.70;;;;;;;;;;5007084;28;20542;-72
2022/02/14 09:05:36;;;;;;;5.90;2.00;;;;;;;;;;5001835;28;20065;-72
2022/02/14 09:08:02;;;;;;;7.35;1.63;;;;;;;;;;5008806;28;20506;-72
2022/02/14 09:10:28;;;;;;;3.15;1.35;;;;;;;;;;5009968;28;20161;-71
2022/02/14 09:12:54;;;;;;;3.75;1.48;;;;;;;;;;5008316;28;20053;-70
2022/02/14 09:15:22;;;;;;;4.78;1.35;;;;;;;;;;5009472;28;20053;-72
2022/02/14 09:17:49;;;;;;;8.30;1.70;;;;;;;;;;5009394;28;20383;-73
2022/02/14 09:20:17;;;;;;;6.28;1.20;;;;;;;;;;5009170;28;20030;-71
2022/02/14 09:22:43;;;;;;;5.32;1.90;;;;;;;;;;5009636;28;20101;-70
2022/02/14 09:25:09;;;;;;;6.15;1.55;;;;;;;;;;5008097;28;20041;-72
2022/02/14 09:27:35;;;;;;;5.65;1.20;;;;;;;;;;5008539;28;20022;-73
2022/02/14 09:30:03;;;;;;;5.28;1.20;;;;;;;;;;5009296;28;20021;-73
2022/02/14 09:32:29;;;;;;;6.05;1.98;;;;;;;;;;5009292;28;20049;-74
2022/02/14 09:34:55;;;;;;;3.90;1.60;;;;;;;;;;5009031;28;20034;-74
2022/02/14 09:37:21;;;;;;;5.82;1.40;;;;;;;;;;5008856;28;20022;-74
2022/02/14 09:39:47;;;;;;;5.55;2.05;;;;;;;;;;5009188;28;20026;-73
2022/02/14 09:42:13;;;;;;;3.17;1.10;;;;;;;;;;5009020;28;20113;-73
2022/02/14 09:44:39;;;;;;;3.08;1.33;;;;;;;;;;5009053;28;20080;-72
2022/02/14 09:47:05;;;;;;;4.38;1.17;;;;;;;;;;5008779;28;20034;-71
2022/02/14 09:49:32;;;;;;;5.15;1.30;;;;;;;;;;5008362;28;20022;-74
2022/02/14 09:51:58;;;;;;;4.43;1.27;;;;;;;;;;5009025;28;20037;-72
2022/02/14 09:54:25;;;;;;;5.80;1.40;;;;;;;;;;5009000;28;20104;-72
2022/02/14 09:56:51;;;;;;;3.97;1.70;;;;;;;;;;5008785;28;20037;-73
2022/02/14 09:59:17;;;;;;;8.23;1.52;;;;;;;;;;5008998;28;20033;-71
2022/02/14 10:01:44;;;;;;;4.68;1.33;;;;;;;;;;5005767;28;20021;-71
2022/02/14 10:04:10;;;;;;;9.20;2.08;;;;;;;;;;5006359;28;20113;-71
2022/02/14 10:06:40;;;;;;;8.05;1.63;;;;;;;;;;5007552;28;20108;-71
2022/02/14 10:09:09;;;;;;;14.88;1.67;;;;;;;;;;5008813;28;20032;-71
2022/02/14 10:11:39;;;;;;;8.23;1.48;;;;;;;;;;5006983;28;20057;-71
2022/02/14 10:14:12;;;;;;;8.65;1.48;;;;;;;;;;5006417;28;20496;-70
2022/02/14 10:16:38;;;;;;;10.27;1.52;;;;;;;;;;5008702;28;20499;-71
2022/02/14 10:19:16;;;;;;;6.47;1.35;;;;;;;;;;5008500;28;20611;-71
2022/02/14 10:21:45;;;;;;;5.20;1.20;;;;;;;;;;5007659;28;20169;-71
2022/02/14 10:24:13;;;;;;;6.50;1.27;;;;;;;;;;5008267;28;20435;-71
2022/02/14 10:26:47;;;;;;;11.98;1.73;;;;;;;;;;5008761;28;20172;-69
2022/02/14 10:29:12;;;;;;;10.00;1.80;;;;;;;;;;5007016;28;20571;-70
2022/02/14 10:31:50;;;;;;;10.30;2.13;;;;;;;;;;5006204;28;20038;-69
2022/02/14 10:34:17;;;;;;;9.32;1.42;;;;;;;;;;5006538;28;20042;-70
2022/02/14 10:36:44;;;;;;;9.43;1.60;;;;;;;;;;5006911;28;20022;-69
2022/02/14 10:39:18;;;;;;;2.40;0.98;;;;;;;;;;5007145;28;20061;-70
2022/02/14 10:41:45;;;;;;;7.82;1.33;;;;;;;;;;5007109;28;20041;-70
2022/02/14 10:44:11;;;;;;;10.80;2.00;;;;;;;;;;5007227;28;20034;-71
2022/02/14 10:46:38;;;;;;;4.00;1.30;;;;;;;;;;5006430;28;20029;-73
2022/02/14 10:49:05;;;;;;;6.15;1.50;;;;;;;;;;5005976;28;20033;-72
2022/02/14 10:51:31;;;;;;;5.97;1.90;;;;;;;;;;4999146;28;20042;-71
2022/02/14 10:53:57;;;;;;;5.15;1.38;;;;;;;;;;5008636;28;20069;-71
2022/02/14 10:56:24;;;;;;;4.03;1.33;;;;;;;;;;5008419;28;20026;-72
2022/02/14 10:58:50;;;;;;;8.02;1.50;;;;;;;;;;5004717;28;20041;-72
2022/02/14 11:01:17;;;;;;;6.75;1.20;;;;;;;;;;4990063;28;20421;-72
2022/02/14 11:03:43;;;;;;;3.78;1.00;;;;;;;;;;5008046;28;20018;-71
2022/02/14 11:06:11;;;;;;;3.85;1.10;;;;;;;;;;5007742;28;20051;-72
2022/02/14 11:08:38;;;;;;;4.88;1.50;;;;;;;;;;5007487;28;20038;-72
2022/02/14 11:11:05;;;;;;;6.45;1.33;;;;;;;;;;5003461;28;20118;-71
2022/02/14 11:13:31;;;;;;;2.25;1.20;;;;;;;;;;5002596;28;20034;-70
2022/02/14 11:15:59;;;;;;;3.92;1.05;;;;;;;;;;4995941;28;20088;-71
2022/02/14 11:18:27;;;;;;;4.60;1.30;;;;;;;;;;5005782;28;20029;-72
2022/02/14 11:20:53;;;;;;;4.47;0.98;;;;;;;;;;5000003;28;20030;-72
2022/02/14 11:23:20;;;;;;;6.03;1.20;;;;;;;;;;5007797;28;20566;-70
2022/02/14 11:25:50;;;;;;;8.48;1.05;;;;;;;;;;5008145;28;20113;-67
2022/02/14 11:28:34;;;;;;;3.63;1.08;;;;;;;;;;5003772;28;20030;-71
2022/02/14 11:31:20;;;;;;;3.38;1.17;;;;;;;;;;5008334;28;20077;-70
2022/02/14 11:33:53;;;;;;;3.95;1.20;;;;;;;;;;5014919;28;20038;-72
2022/02/14 11:36:19;;;;;;;5.45;1.10;;;;;;;;;;5012553;28;20100;-71
2022/02/14 11:38:55;;;;;;;4.05;1.13;;;;;;;;;;5011868;28;20510;-72
2022/02/14 11:41:24;;;;;;;5.22;1.23;;;;;;;;;;5011412;28;20038;-73
2022/02/14 11:43:51;;;;;;;7.55;1.20;;;;;;;;;;5010926;28;20018;-70
2022/02/14 11:46:25;;;;;;;4.30;1.00;;;;;;;;;;5011225;28;20597;-71
2022/02/14 11:49:03;;;;;;;4.80;1.00;;;;;;;;;;5011681;28;20022;-70
2022/02/14 11:51:46;;;;;;;4.38;1.33;;;;;;;;;;5011764;28;20318;-72
2022/02/14 11:54:27;;;;;;;9.88;2.15;;;;;;;;;;5011655;28;20084;-72
2022/02/14 11:56:54;;;;;;;7.75;1.63;;;;;;;;;;5011875;28;20105;-66
2022/02/14 11:59:29;;;;;;;6.47;1.38;;;;;;;;;;5010834;28;20030;-69
2022/02/14 12:02:01;;;;;;;6.28;1.40;;;;;;;;;;5011604;28;20038;-69
2022/02/14 12:04:44;;;;;;;2.60;1.08;;;;;;;;;;5003882;28;20354;-69
2022/02/14 12:07:29;;;;;;;8.30;1.40;;;;;;;;;;5011935;28;20052;-69
2022/02/14 12:10:03;;;;;;;3.80;1.23;;;;;;;;;;5010670;28;20832;-70
2022/02/14 12:20:41;;;;;;;5.03;2.00;;;;;;;;;;5011714;28;20064;-68
2022/02/14 12:23:07;;;;;;;4.80;1.45;;;;;;;;;;5016894;28;20230;-69
2022/02/14 12:25:37;;;;;;;7.45;1.25;;;;;;;;;;5009014;28;20105;-69
2022/02/14 12:28:07;;;;;;;3.38;1.10;;;;;;;;;;5010386;28;20685;-65
2022/02/14 12:30:33;;;;;;;6.13;1.30;;;;;;;;;;5008940;28;20682;-65
2022/02/14 12:33:06;;;;;;;9.80;1.45;;;;;;;;;;5007174;28;20113;-65
2022/02/14 12:35:33;;;;;;;6.88;1.65;;;;;;;;;;5009130;28;20133;-66
2022/02/14 12:38:00;;;;;;;3.28;1.30;;;;;;;;;;5010114;28;20117;-71
2022/02/14 12:40:43;;;;;;;4.45;0.90;;;;;;;;;;5009230;28;20463;-68
2022/02/14 12:43:09;;;;;;;5.90;1.35;;;;;;;;;;5007651;28;20020;-68
2022/02/14 12:45:36;;;;;;;4.20;1.05;;;;;;;;;;5009444;28;20172;-68
2022/02/14 12:48:02;;;;;;;4.47;1.45;;;;;;;;;;5015427;28;20785;-68
2022/02/14 12:50:35;;;;;;;4.60;1.17;;;;;;;;;;5012864;28;20022;-68
2022/02/14 12:53:09;;;;;;;5.20;1.20;;;;;;;;;;5010360;28;20110;-68
2022/02/14 12:55:35;;;;;;;3.85;1.00;;;;;;;;;;5010123;28;20022;-69
2022/02/14 12:58:01;;;;;;;7.43;1.00;;;;;;;;;;5010424;28;20057;-69
2022/02/14 13:00:29;;;;;;;4.13;1.10;;;;;;;;;;5020449;28;20061;-69
2022/02/14 13:03:15;;;;;;;5.82;1.00;;;;;;;;;;5012373;28;20037;-69
2022/02/14 13:05:48;;;;;;;6.07;1.23;;;;;;;;;;5015834;28;20029;-69
2022/02/14 13:08:18;;;;;;;3.85;1.00;;;;;;;;;;5014772;28;20100;-68
2022/02/14 13:10:46;;;;;;;5.28;0.90;;;;;;;;;;5013608;28;20017;-73
2022/02/14 13:13:28;;;;;;;3.45;0.95;;;;;;;;;;5009132;28;20025;-73
2022/02/14 13:15:55;;;;;;;4.82;1.10;;;;;;;;;;5010516;28;20038;-67
2022/02/14 13:18:21;;;;;;;1.90;0.70;;;;;;;;;;5010208;28;20052;-71
2022/02/14 13:20:55;;;;;;;7.40;1.05;;;;;;;;;;5009355;28;20041;-72
2022/02/14 13:23:21;;;;;;;5.78;1.00;;;;;;;;;;5008982;28;20117;-75
2022/02/14 13:25:49;;;;;;;2.97;1.23;;;;;;;;;;5009082;28;20080;-73
2022/02/14 13:28:15;;;;;;;3.20;1.15;;;;;;;;;;5008499;28;20053;-74
2022/02/14 13:30:42;;;;;;;3.78;0.88;;;;;;;;;;5008423;28;20040;-73
2022/02/14 13:33:26;;;;;;;3.75;0.95;;;;;;;;;;5007506;28;20022;-74
2022/02/14 13:35:59;;;;;;;6.55;1.10;;;;;;;;;;4988705;28;20058;-74
2022/02/14 13:38:38;;;;;;;3.30;1.13;;;;;;;;;;5004647;28;20863;-75
2022/02/14 13:41:05;;;;;;;4.72;0.98;;;;;;;;;;5008473;28;20030;-70
2022/02/14 13:43:37;;;;;;;2.53;1.08;;;;;;;;;;5008442;28;20030;-70
2022/02/14 13:46:04;;;;;;;3.25;1.05;;;;;;;;;;4988967;28;20030;-71
2022/02/14 13:48:31;;;;;;;3.45;1.02;;;;;;;;;;5004583;28;20034;-68
2022/02/14 13:50:58;;;;;;;3.55;1.25;;;;;;;;;;5009372;28;20395;-70
2022/02/14 13:53:24;;;;;;;2.45;0.93;;;;;;;;;;5009011;28;20072;-71
2022/02/14 13:56:02;;;;;;;3.42;1.30;;;;;;;;;;5018449;28;20064;-70
2022/02/14 13:58:29;;;;;;;3.35;0.82;;;;;;;;;;5014651;28;20030;-69
2022/02/14 14:00:56;;;;;;;3.58;0.90;;;;;;;;;;5018149;28;20104;-70
2022/02/14 14:03:26;;;;;;;4.43;1.20;;;;;;;;;;5019295;28;20024;-70
2022/02/14 14:05:52;;;;;;;4.90;1.00;;;;;;;;;;5019104;28;20081;-69
2022/02/14 14:08:36;;;;;;;3.30;0.82;;;;;;;;;;5015317;28;20021;-70
2022/02/14 14:11:03;;;;;;;2.20;0.77;;;;;;;;;;5013654;28;20565;-70
2022/02/14 14:13:40;;;;;;;6.15;1.17;;;;;;;;;;5004050;28;20075;-70
2022/02/14 14:16:08;;;;;;;1.65;0.68;;;;;;;;;;5008963;28;20547;-70
2022/02/14 14:18:34;;;;;;;4.07;1.10;;;;;;;;;;5009172;28;20033;-70
2022/02/14 14:21:18;;;;;;;2.67;1.10;;;;;;;;;;5008841;28;20041;-68
2022/02/14 14:23:45;;;;;;;6.35;0.82;;;;;;;;;;5009016;28;20026;-68
2022/02/14 14:26:11;;;;;;;7.43;1.00;;;;;;;;;;5008816;28;20050;-67
2022/02/14 14:28:37;;;;;;;4.55;0.82;;;;;;;;;;5007574;28;20080;-66
2022/02/14 14:31:04;;;;;;;2.60;0.70;;;;;;;;;;5007119;28;20033;-64
2022/02/14 14:33:32;;;;;;;2.53;0.95;;;;;;;;;;5009308;28;20046;-66
2022/02/14 14:36:00;;;;;;;1.63;0.50;;;;;;;;;;5008101;28;20057;-65
2022/02/14 14:38:26;;;;;;;3.38;0.80;;;;;;;;;;5014035;28;20057;-70
2022/02/14 14:40:52;;;;;;;3.85;1.10;;;;;;;;;;5008386;28;20022;-71
2022/02/14 14:43:19;;;;;;;4.95;1.25;;;;;;;;;;5009654;28;20037;-72
2022/02/14 14:45:45;;;;;;;2.53;0.77;;;;;;;;;;5014757;28;20360;-72
2022/02/14 14:48:11;;;;;;;6.88;0.90;;;;;;;;;;5013953;28;20021;-71